createdAt,value
2019-05-15T00:01:50.067Z,3.50
2019-05-15T00:04:18.527Z,3.40
2019-05-15T00:06:44.417Z,3.80
2019-05-15T00:09:10.754Z,3.23
2019-05-15T00:11:38.941Z,2.77
2019-05-15T00:14:05.154Z,3.10
2019-05-15T00:16:31.377Z,2.90
2019-05-15T00:18:59.085Z,3.13
2019-05-15T00:21:25.474Z,3.40
2019-05-15T00:23:52.917Z,3.33
2019-05-15T00:26:19.258Z,3.13
2019-05-15T00:28:47.872Z,3.20
2019-05-15T00:31:13.814Z,3.50
2019-05-15T00:33:40.065Z,3.00
2019-05-15T00:36:08.615Z,3.50
2019-05-15T00:38:34.723Z,2.63
2019-05-15T00:41:01.077Z,3.20
2019-05-15T00:43:29.153Z,3.77
2019-05-15T00:45:55.564Z,2.80
2019-05-15T00:48:21.795Z,2.73
2019-05-15T00:50:48.527Z,2.60
2019-05-15T00:53:14.992Z,3.37
2019-05-15T00:55:41.233Z,3.17
2019-05-15T00:58:08.683Z,3.90
2019-05-15T01:00:41.577Z,2.67
2019-05-15T01:03:08.739Z,3.20
2019-05-15T01:05:35.548Z,3.80
2019-05-15T01:08:01.804Z,3.57
2019-05-15T01:10:28.633Z,3.67
2019-05-15T01:12:55.086Z,4.40
2019-05-15T01:15:21.309Z,3.63
2019-05-15T01:17:49.176Z,4.10
2019-05-15T01:20:18.938Z,4.00
2019-05-15T01:22:48.349Z,4.40
2019-05-15T01:25:14.037Z,4.50
2019-05-15T01:27:40.375Z,4.27
2019-05-15T01:30:08.925Z,4.00
2019-05-15T01:32:39.571Z,4.13
2019-05-15T01:35:05.400Z,4.20
2019-05-15T01:37:31.682Z,4.13
2019-05-15T01:39:58.198Z,3.90
2019-05-15T01:42:24.547Z,4.30
2019-05-15T01:44:50.788Z,4.70
2019-05-15T01:47:18.971Z,4.57
2019-05-15T01:49:45.148Z,4.13
2019-05-15T01:52:11.405Z,3.80
2019-05-15T01:55:11.839Z,3.93
2019-05-15T01:57:38.547Z,4.90
2019-05-15T02:00:08.819Z,4.63
2019-05-15T02:02:35.149Z,4.87
2019-05-15T02:05:02.124Z,5.00
2019-05-15T02:07:28.336Z,3.80
2019-05-15T02:09:54.596Z,4.10
2019-05-15T02:12:20.837Z,4.17
2019-05-15T02:14:48.498Z,4.33
2019-05-15T02:17:14.923Z,4.70
2019-05-15T02:19:43.052Z,3.67
2019-05-15T02:22:09.285Z,4.60
2019-05-15T02:24:35.608Z,4.37
2019-05-15T02:27:01.946Z,4.00
2019-05-15T02:29:28.683Z,4.70
2019-05-15T02:31:55.084Z,4.93
2019-05-15T02:34:21.631Z,4.97
2019-05-15T02:36:49.283Z,4.70
2019-05-15T02:39:18.704Z,4.20
2019-05-15T02:42:04.051Z,3.97
2019-05-15T02:44:30.320Z,4.40
2019-05-15T02:46:58.803Z,4.77
2019-05-15T02:49:24.667Z,4.80
2019-05-15T02:51:50.876Z,4.93
2019-05-15T02:54:24.491Z,4.23
2019-05-15T02:56:50.729Z,4.20
2019-05-15T02:59:19.480Z,4.83
2019-05-15T03:01:49.086Z,3.60
2019-05-15T03:04:14.456Z,4.40
2019-05-15T03:06:40.704Z,4.13
2019-05-15T03:09:09.443Z,4.23
2019-05-15T03:11:35.058Z,4.53
2019-05-15T03:14:01.418Z,4.80
2019-05-15T03:16:30.470Z,4.90
2019-05-15T03:18:59.575Z,4.13
2019-05-15T03:21:24.549Z,4.73
2019-05-15T03:23:51.083Z,4.80
2019-05-15T03:26:19.817Z,4.30
2019-05-15T03:28:49.374Z,4.27
2019-05-15T03:31:35.213Z,3.97
2019-05-15T03:33:45.363Z,4.57
2019-05-15T03:36:13.590Z,3.60
2019-05-15T03:38:39.649Z,4.87
2019-05-15T03:41:09.882Z,3.90
2019-05-15T03:43:35.029Z,4.70
2019-05-15T03:46:01.944Z,3.63
2019-05-15T03:48:29.085Z,3.50
2019-05-15T03:50:59.611Z,3.67
2019-05-15T03:53:25.110Z,3.47
2019-05-15T03:55:51.878Z,3.80
2019-05-15T03:58:21.573Z,3.50
2019-05-15T04:00:49.539Z,4.03
2019-05-15T04:03:14.592Z,4.00
2019-05-15T04:05:41.166Z,4.13
2019-05-15T04:08:10.359Z,3.70
2019-05-15T04:10:35.669Z,3.70
2019-05-15T04:13:02.193Z,4.30
2019-05-15T04:15:30.116Z,3.50
2019-05-15T04:18:00.032Z,4.10
2019-05-15T04:20:24.934Z,4.20
2019-05-15T04:22:51.254Z,3.70
2019-05-15T04:25:19.141Z,4.00
2019-05-15T04:27:49.327Z,3.90
2019-05-15T04:30:15.343Z,3.90
2019-05-15T04:32:43.162Z,3.17
2019-05-15T04:35:10.360Z,3.87
2019-05-15T04:37:40.655Z,3.57
2019-05-15T04:40:05.435Z,3.43
2019-05-15T04:42:31.699Z,3.20
2019-05-15T04:44:59.592Z,3.13
2019-05-15T04:47:26.137Z,3.20
2019-05-15T04:49:52.462Z,3.97
2019-05-15T04:52:19.662Z,5.13
2019-05-15T04:54:49.139Z,4.47
2019-05-15T04:57:19.335Z,3.67
2019-05-15T04:59:45.386Z,3.03
2019-05-15T05:02:17.182Z,3.47
2019-05-15T05:04:43.178Z,3.47
2019-05-15T05:07:09.706Z,3.20
2019-05-15T05:09:38.789Z,2.50
2019-05-15T05:12:04.244Z,3.33
2019-05-15T05:14:30.509Z,3.20
2019-05-15T05:16:59.323Z,3.13
2019-05-15T05:19:28.462Z,3.70
2019-05-15T05:21:55.485Z,3.23
2019-05-15T05:24:21.900Z,3.30
2019-05-15T05:26:48.995Z,2.83
2019-05-15T05:29:17.698Z,3.57
2019-05-15T05:31:43.672Z,2.67
2019-05-15T05:34:10.037Z,2.83
2019-05-15T05:36:38.446Z,3.73
2019-05-15T05:39:06.078Z,3.23
2019-05-15T05:41:32.434Z,2.43
2019-05-15T05:43:58.798Z,3.03
2019-05-15T05:46:25.019Z,3.40
2019-05-15T05:48:51.276Z,3.30
2019-05-15T05:51:19.023Z,3.20
2019-05-15T05:53:47.981Z,3.37
2019-05-15T05:56:14.151Z,2.40
2019-05-15T05:58:40.446Z,2.90
2019-05-15T06:01:09.074Z,2.93
2019-05-15T06:03:34.875Z,3.23
2019-05-15T06:06:01.402Z,3.20
2019-05-15T06:08:28.355Z,3.00
2019-05-15T06:10:54.882Z,3.40
2019-05-15T06:13:21.143Z,3.00
2019-05-15T06:15:48.883Z,2.50
2019-05-15T06:18:15.718Z,3.17
2019-05-15T06:20:41.961Z,4.40
2019-05-15T06:23:08.541Z,4.17
2019-05-15T06:25:35.117Z,3.50
2019-05-15T06:28:01.531Z,2.97
2019-05-15T06:30:30.751Z,3.30
2019-05-15T06:33:08.280Z,3.37
2019-05-15T06:35:30.929Z,3.40
2019-05-15T06:37:54.970Z,3.50
2019-05-15T06:40:21.641Z,3.10
2019-05-15T06:42:51.022Z,3.60
2019-05-15T06:45:39.241Z,2.90
2019-05-15T06:48:05.450Z,3.77
2019-05-15T06:50:59.075Z,3.20
2019-05-15T06:53:25.351Z,3.20
2019-05-15T06:55:51.581Z,3.27
2019-05-15T06:58:19.268Z,3.30
2019-05-15T07:00:48.810Z,3.00
2019-05-15T07:03:21.494Z,4.20
2019-05-15T07:05:42.465Z,3.30
2019-05-15T07:08:09.167Z,3.90
2019-05-15T07:10:37.659Z,3.60
2019-05-15T07:13:03.912Z,3.10
2019-05-15T07:15:30.137Z,3.60
2019-05-15T07:17:58.044Z,3.57
2019-05-15T07:20:24.732Z,3.87
2019-05-15T07:22:51.084Z,3.43
2019-05-15T07:25:18.923Z,3.40
2019-05-15T07:27:47.754Z,3.83
2019-05-15T07:30:15.831Z,3.57
2019-05-15T07:32:42.088Z,3.50
2019-05-15T07:35:10.727Z,4.10
2019-05-15T07:37:38.781Z,3.30
2019-05-15T07:40:08.402Z,4.00
2019-05-15T07:42:34.757Z,4.20
2019-05-15T07:45:01.060Z,3.30
2019-05-15T07:47:29.285Z,3.90
2019-05-15T07:49:55.548Z,3.10
2019-05-15T07:52:21.857Z,3.70
2019-05-15T07:54:48.890Z,3.73
2019-05-15T07:57:15.473Z,3.60
2019-05-15T07:59:42.236Z,4.50
2019-05-15T08:02:08.589Z,3.60
2019-05-15T08:04:34.869Z,4.60
2019-05-15T08:07:01.370Z,3.80
2019-05-15T08:09:28.436Z,3.80
2019-05-15T08:11:54.829Z,3.50
2019-05-15T08:14:21.061Z,3.97
2019-05-15T08:16:48.492Z,4.67
2019-05-15T08:19:14.915Z,4.80
2019-05-15T08:21:41.147Z,3.70
2019-05-15T08:24:08.547Z,3.87
2019-05-15T08:26:34.968Z,4.10
2019-05-15T08:29:01.306Z,3.27
2019-05-15T08:31:28.854Z,3.30
2019-05-15T08:34:09.095Z,3.80
2019-05-15T08:36:23.390Z,3.10
2019-05-15T08:38:49.627Z,3.40
2019-05-15T08:41:18.358Z,3.50
2019-05-15T08:43:44.057Z,3.80
2019-05-15T08:46:10.394Z,3.10
2019-05-15T08:48:38.303Z,3.37
2019-05-15T08:51:04.766Z,4.07
2019-05-15T08:53:31.005Z,3.47
2019-05-15T08:55:58.797Z,4.47
2019-05-15T08:58:25.163Z,3.77
2019-05-15T09:00:52.627Z,3.23
2019-05-15T09:03:19.030Z,3.73
2019-05-15T09:05:45.266Z,4.60
2019-05-15T09:08:11.582Z,3.13
2019-05-15T09:10:38.502Z,3.73
2019-05-15T09:13:05.003Z,3.00
2019-05-15T09:15:31.329Z,3.80
2019-05-15T09:18:11.001Z,3.60
2019-05-15T09:20:28.600Z,3.53
2019-05-15T09:22:54.040Z,3.57
2019-05-15T09:25:20.389Z,4.07
2019-05-15T09:27:48.852Z,4.00
2019-05-15T09:30:18.082Z,3.43
2019-05-15T09:32:43.514Z,4.33
2019-05-15T09:35:15.706Z,4.13
2019-05-15T09:37:41.976Z,4.10
2019-05-15T09:40:09.059Z,3.57
2019-05-15T09:42:38.671Z,3.30
2019-05-15T09:45:08.929Z,3.93
2019-05-15T09:47:35.063Z,3.17
2019-05-15T09:50:01.773Z,3.90
2019-05-15T09:52:29.859Z,3.50
2019-05-15T09:54:59.090Z,3.57
2019-05-15T09:57:24.827Z,3.63
2019-05-15T09:59:51.362Z,3.93
2019-05-15T10:02:19.034Z,4.00
2019-05-15T10:04:48.199Z,5.00
2019-05-15T10:07:14.765Z,3.60
2019-05-15T10:09:41.051Z,3.70
2019-05-15T10:12:09.130Z,2.93
2019-05-15T10:14:35.449Z,3.60
2019-05-15T10:17:01.702Z,3.60
2019-05-15T10:19:29.006Z,4.10
2019-05-15T10:21:55.470Z,4.40
2019-05-15T10:24:21.746Z,4.30
2019-05-15T10:26:49.138Z,3.67
2019-05-15T10:29:15.457Z,3.47
2019-05-15T10:31:41.719Z,3.50
2019-05-15T10:34:09.127Z,3.30
2019-05-15T10:36:38.524Z,3.30
2019-05-15T10:39:08.221Z,3.73
2019-05-15T10:41:34.178Z,3.80
2019-05-15T10:44:00.625Z,4.07
2019-05-15T10:46:26.984Z,3.20
2019-05-15T10:48:53.248Z,3.33
2019-05-15T10:51:19.956Z,3.23
2019-05-15T10:53:48.496Z,3.87
2019-05-15T10:56:14.390Z,4.47
2019-05-15T10:58:40.627Z,3.30
2019-05-15T11:01:10.963Z,3.57
2019-05-15T11:03:35.861Z,3.40
2019-05-15T11:06:02.494Z,3.40
2019-05-15T11:08:29.138Z,3.73
2019-05-15T11:10:58.358Z,3.37
2019-05-15T11:13:24.008Z,3.13
2019-05-15T11:15:50.244Z,3.07
2019-05-15T11:18:16.512Z,3.20
2019-05-15T11:20:42.760Z,3.83
2019-05-15T11:23:10.883Z,4.50
2019-05-15T11:25:37.807Z,3.33
2019-05-15T11:28:04.109Z,3.57
2019-05-15T11:30:30.378Z,3.10
2019-05-15T11:32:58.744Z,3.40
2019-05-15T11:35:24.765Z,2.90
2019-05-15T11:37:56.706Z,3.10
2019-05-15T11:40:19.475Z,3.37
2019-05-15T11:42:45.709Z,3.70
2019-05-15T11:45:13.144Z,3.60
2019-05-15T11:47:40.318Z,4.03
2019-05-15T11:50:10.648Z,3.30
2019-05-15T11:52:40.092Z,3.87
2019-05-15T11:55:08.381Z,3.50
2019-05-15T11:57:42.611Z,3.50
2019-05-15T12:00:05.581Z,3.70
2019-05-15T12:02:31.946Z,3.63
2019-05-15T12:04:58.529Z,3.50
2019-05-15T12:07:24.917Z,3.10
2019-05-15T12:09:52.478Z,3.43
2019-05-15T12:12:18.732Z,3.60
2019-05-15T12:14:44.947Z,4.00
2019-05-15T12:17:15.369Z,3.97
2019-05-15T12:19:42.672Z,3.60
2019-05-15T12:22:08.884Z,3.80
2019-05-15T12:24:37.009Z,3.57
2019-05-15T12:27:13.888Z,3.97
2019-05-15T12:29:31.523Z,3.57
2019-05-15T12:31:58.941Z,3.73
2019-05-15T12:34:29.064Z,3.60
2019-05-15T12:39:29.538Z,3.80
2019-05-15T13:01:38.664Z,4.27
2019-05-15T13:04:05.293Z,3.80
2019-05-15T13:06:40.018Z,3.50
2019-05-15T13:08:59.751Z,4.20
2019-05-15T13:11:25.930Z,3.73
2019-05-15T13:13:52.745Z,3.60
2019-05-15T13:16:18.996Z,3.77
2019-05-15T13:18:45.252Z,4.47
2019-05-15T13:21:11.497Z,4.10
2019-05-15T13:23:38.770Z,3.93
2019-05-15T13:26:12.753Z,3.80
2019-05-15T13:28:36.829Z,4.83
2019-05-15T13:31:03.121Z,3.53
2019-05-15T13:33:29.450Z,4.27
2019-05-15T13:35:58.529Z,3.67
2019-05-15T13:38:25.032Z,3.50
2019-05-15T13:40:51.255Z,3.80
2019-05-15T13:43:18.632Z,4.07
2019-05-15T13:45:45.089Z,4.27
2019-05-15T13:48:11.321Z,4.03
2019-05-15T13:50:40.422Z,4.07
2019-05-15T13:53:10.027Z,4.67
2019-05-15T13:55:37.217Z,4.13
2019-05-15T13:58:02.181Z,3.47
2019-05-15T14:00:30.001Z,3.90
2019-05-15T14:02:58.357Z,4.60
2019-05-15T14:05:24.389Z,3.80
2019-05-15T14:07:53.503Z,3.93
2019-05-15T14:10:19.101Z,4.17
2019-05-15T14:12:45.348Z,4.23
2019-05-15T14:15:15.954Z,3.50
2019-05-15T14:17:42.176Z,4.10
2019-05-15T14:20:09.404Z,4.40
2019-05-15T14:22:38.913Z,4.37
2019-05-15T14:25:08.776Z,3.80
2019-05-15T14:27:35.592Z,4.53
2019-05-15T14:30:08.935Z,3.70
2019-05-15T14:32:39.085Z,4.00
2019-05-15T14:35:08.476Z,4.17
2019-05-15T14:37:34.724Z,3.93
2019-05-15T14:40:01.057Z,4.13
2019-05-15T14:42:29.304Z,3.47
2019-05-15T14:44:55.574Z,3.53
2019-05-15T14:47:21.895Z,3.67
2019-05-15T14:49:49.528Z,3.90
2019-05-15T14:52:17.841Z,3.53
2019-05-15T14:54:44.073Z,3.70
2019-05-15T14:57:10.393Z,3.63
2019-05-15T14:59:38.138Z,3.73
2019-05-15T15:02:04.760Z,4.57
2019-05-15T15:04:31.012Z,3.37
2019-05-15T15:06:57.961Z,5.83
2019-05-15T15:09:24.441Z,3.67
2019-05-15T15:11:50.672Z,3.67
2019-05-15T15:14:17.992Z,4.50
2019-05-15T15:16:44.332Z,3.27
2019-05-15T15:19:10.984Z,3.50
2019-05-15T15:21:38.386Z,3.13
2019-05-15T15:24:04.981Z,3.70
2019-05-15T15:26:51.104Z,3.50
2019-05-15T15:29:30.931Z,4.03
2019-05-15T15:31:58.908Z,3.57
2019-05-15T15:34:25.366Z,3.60
2019-05-15T15:36:51.709Z,3.80
2019-05-15T15:39:17.927Z,3.60
2019-05-15T15:41:48.397Z,3.50
2019-05-15T15:44:12.400Z,3.23
2019-05-15T15:46:39.522Z,3.90
2019-05-15T15:49:08.632Z,3.80
2019-05-15T15:51:34.293Z,4.20
2019-05-15T15:54:01.276Z,3.90
2019-05-15T15:56:29.114Z,3.27
2019-05-15T15:58:55.605Z,2.93
2019-05-15T16:01:25.645Z,3.37
2019-05-15T16:03:50.134Z,2.80
2019-05-15T16:06:18.312Z,3.60
2019-05-15T16:08:53.141Z,3.33
2019-05-15T16:11:12.703Z,3.43
2019-05-15T16:13:38.961Z,3.53
2019-05-15T16:16:05.210Z,3.30
2019-05-15T16:18:31.503Z,3.80
2019-05-15T16:20:58.059Z,3.43
2019-05-15T16:23:24.415Z,2.83
2019-05-15T16:25:50.669Z,2.87
2019-05-15T16:28:18.480Z,2.87
2019-05-15T16:30:50.894Z,3.43
2019-05-15T16:33:12.999Z,3.50
2019-05-15T16:35:39.244Z,4.90
2019-05-15T16:38:05.617Z,3.37
2019-05-15T16:40:31.854Z,4.60
2019-05-15T16:42:58.153Z,3.77
2019-05-15T16:45:25.020Z,3.20
2019-05-15T16:47:53.775Z,4.27
2019-05-15T16:50:21.212Z,3.63
2019-05-15T16:52:49.108Z,3.07
2019-05-15T16:55:18.522Z,3.43
2019-05-15T17:01:39.408Z,4.43
2019-05-15T17:04:08.304Z,3.70
2019-05-15T17:06:34.579Z,4.30
2019-05-15T17:09:01.370Z,3.40
2019-05-15T17:11:28.877Z,4.90
2019-05-15T17:13:55.302Z,4.00
2019-05-15T17:16:23.232Z,3.67
2019-05-15T17:18:49.758Z,4.30
2019-05-15T17:21:18.787Z,5.60
2019-05-15T17:23:45.297Z,7.27
2019-05-15T17:26:11.690Z,5.70
2019-05-15T17:28:38.334Z,4.23
2019-05-15T17:31:04.728Z,3.70
2019-05-15T17:33:31.004Z,6.23
2019-05-15T17:35:58.021Z,5.10
2019-05-15T17:38:24.610Z,4.40
2019-05-15T17:40:51.148Z,3.80
2019-05-15T17:43:19.244Z,4.00
2019-05-15T17:45:47.925Z,3.90
2019-05-15T17:48:13.759Z,4.53
2019-05-15T17:50:48.383Z,3.60
2019-05-15T17:53:09.885Z,4.33
2019-05-15T17:55:38.405Z,4.50
2019-05-15T17:58:05.608Z,4.13
2019-05-15T18:00:33.179Z,4.03
2019-05-15T18:03:00.008Z,4.40
2019-05-15T18:05:28.294Z,4.60
2019-05-15T18:07:54.522Z,4.20
2019-05-15T18:10:20.795Z,7.07
2019-05-15T18:12:48.818Z,4.23
2019-05-15T18:15:17.303Z,3.87
2019-05-15T18:17:43.606Z,3.70
2019-05-15T18:20:29.188Z,5.20
2019-05-15T18:22:54.610Z,3.97
2019-05-15T18:25:21.057Z,4.00
2019-05-15T18:27:48.200Z,3.80
2019-05-15T18:30:15.239Z,4.00
2019-05-15T18:32:43.803Z,4.40
2019-05-15T18:35:10.724Z,4.03
2019-05-15T18:37:39.243Z,3.67
2019-05-15T18:40:09.939Z,4.50
2019-05-15T18:42:38.909Z,5.30
2019-05-15T18:45:06.745Z,4.70
2019-05-15T18:47:33.624Z,4.77
2019-05-15T18:50:08.713Z,4.67
2019-05-15T18:52:29.554Z,4.20
2019-05-15T18:54:58.838Z,4.30
2019-05-15T18:57:27.542Z,4.57
2019-05-15T18:59:54.599Z,3.80
2019-05-15T19:02:21.785Z,4.10
2019-05-15T19:04:49.334Z,4.10
2019-05-15T19:07:18.135Z,3.83
2019-05-15T19:09:47.901Z,4.63
2019-05-15T19:12:17.724Z,5.37
2019-05-15T19:14:44.932Z,4.83
2019-05-15T19:17:13.710Z,4.33
2019-05-15T19:19:40.873Z,3.83
2019-05-15T19:22:08.590Z,4.07
2019-05-15T19:24:39.894Z,4.03
2019-05-15T19:27:07.868Z,4.17
2019-05-15T19:29:37.702Z,3.97
2019-05-15T19:32:05.089Z,4.67
2019-05-15T19:35:02.036Z,4.00
2019-05-15T19:37:30.471Z,4.83
2019-05-15T19:39:59.331Z,4.53
2019-05-15T19:42:28.685Z,4.00
2019-05-15T19:44:59.026Z,4.30
2019-05-15T19:47:26.997Z,4.93
2019-05-15T19:49:55.019Z,4.97
2019-05-15T19:52:24.793Z,7.77
2019-05-15T19:54:51.909Z,5.10
2019-05-15T19:57:21.482Z,4.43
2019-05-15T19:59:49.132Z,4.00
2019-05-15T20:02:18.101Z,4.33
2019-05-15T20:04:45.852Z,4.90
2019-05-15T20:07:15.449Z,4.90
2019-05-15T20:09:42.445Z,5.40
2019-05-15T20:12:09.576Z,5.07
2019-05-15T20:14:38.386Z,4.70
2019-05-15T20:17:08.100Z,3.87
2019-05-15T20:19:35.193Z,4.90
2019-05-15T20:22:02.177Z,4.27
2019-05-15T20:24:29.174Z,5.43
2019-05-15T20:26:56.127Z,4.80
2019-05-15T20:29:23.013Z,4.97
2019-05-15T20:31:49.312Z,7.40
2019-05-15T20:34:16.928Z,4.93
2019-05-15T20:36:48.813Z,5.40
2019-05-15T20:39:16.323Z,4.90
2019-05-15T20:41:51.047Z,5.17
2019-05-15T20:44:18.232Z,6.73
2019-05-15T20:46:50.054Z,5.60
2019-05-15T20:49:14.310Z,5.17
2019-05-15T20:51:40.777Z,5.03
2019-05-15T20:54:08.379Z,4.83
2019-05-15T20:56:35.078Z,6.43
2019-05-15T20:59:01.368Z,5.60
2019-05-15T21:01:28.814Z,5.37
2019-05-15T21:03:55.175Z,6.27
2019-05-15T21:06:21.445Z,5.30
2019-05-15T21:08:48.778Z,6.10
2019-05-15T21:11:15.176Z,5.60
2019-05-15T21:13:41.516Z,5.90
2019-05-15T21:16:08.404Z,4.90
2019-05-15T21:18:38.026Z,4.93
2019-05-15T21:21:04.386Z,5.27
2019-05-15T21:23:32.529Z,5.27
2019-05-15T21:25:59.175Z,5.47
2019-05-15T21:28:27.770Z,4.70
2019-05-15T21:30:53.760Z,5.27
2019-05-15T21:33:20.016Z,5.40
2019-05-15T21:35:47.731Z,5.13
2019-05-15T21:38:14.332Z,5.50
2019-05-15T21:40:40.569Z,4.97
2019-05-15T21:43:08.800Z,5.30
2019-05-15T21:45:34.943Z,6.33
2019-05-15T21:48:01.171Z,5.53
2019-05-15T21:50:28.388Z,5.77
2019-05-15T21:52:54.812Z,5.17
2019-05-15T21:55:22.965Z,5.93
2019-05-15T21:57:49.495Z,6.10
2019-05-15T22:00:29.168Z,6.60
2019-05-15T22:02:58.378Z,6.47
2019-05-15T22:05:24.393Z,6.13
2019-05-15T22:07:51.782Z,6.73
2019-05-15T22:10:19.216Z,7.63
2019-05-15T22:12:48.194Z,6.10
2019-05-15T22:15:18.987Z,6.20
2019-05-15T22:17:45.175Z,7.00
2019-05-15T22:20:12.112Z,7.00
2019-05-15T22:22:38.348Z,5.97
2019-05-15T22:25:08.573Z,5.83
2019-05-15T22:27:34.117Z,6.77
2019-05-15T22:30:00.609Z,6.30
2019-05-15T22:32:29.049Z,6.10
2019-05-15T22:35:06.207Z,6.27
2019-05-15T22:37:23.170Z,7.03
2019-05-15T22:39:49.440Z,7.00
2019-05-15T22:42:18.168Z,6.20
2019-05-15T22:44:43.850Z,7.43
2019-05-15T22:47:10.619Z,6.13
2019-05-15T22:49:38.095Z,6.80
2019-05-15T22:52:04.523Z,6.17
2019-05-15T22:54:30.792Z,6.70
2019-05-15T22:56:57.666Z,7.10
2019-05-15T22:59:24.819Z,6.67
2019-05-15T23:01:51.628Z,8.50
2019-05-15T23:04:18.172Z,7.70
2019-05-15T23:06:53.515Z,8.50
2019-05-15T23:09:19.760Z,7.00
2019-05-15T23:11:48.377Z,8.67
2019-05-15T23:14:14.127Z,7.40
2019-05-15T23:16:40.577Z,8.00
2019-05-15T23:19:08.124Z,8.30
2019-05-15T23:21:37.273Z,7.20
2019-05-15T23:24:03.343Z,8.30
2019-05-15T23:26:29.581Z,8.47
2019-05-15T23:28:55.804Z,8.80
2019-05-15T23:31:23.304Z,8.13
2019-05-15T23:33:49.989Z,9.00
2019-05-15T23:36:18.101Z,9.37
2019-05-15T23:38:44.564Z,8.93
2019-05-15T23:41:12.103Z,7.70
2019-05-15T23:43:38.925Z,7.97
2019-05-15T23:46:05.299Z,8.00
2019-05-15T23:48:31.543Z,7.67
2019-05-15T23:50:59.101Z,7.60
2019-05-15T23:53:25.798Z,7.63
2019-05-15T23:55:52.049Z,8.37
2019-05-15T23:58:19.047Z,7.00
